Time;durP1;ratioP1;P1;durP2;ratioP2;P2;SDS_P1;SDS_P2;PMS_P1;PMS_P2;Temp;Humidity;BMP_temperature;BMP_pressure;BME280_temperature;BME280_humidity;BME280_pressure;Samples;Min_cycle;Max_cycle;Signal;HPM_P1;HPM_P2
2021/06/25 00:01:22;;;;;;;25.42;19.75;;;;;;;;;;4973843;28;20105;-75
2021/06/25 00:03:47;;;;;;;24.88;19.23;;;;;;;;;;4969681;28;20027;-74
2021/06/25 00:06:13;;;;;;;30.35;20.48;;;;;;;;;;4970648;28;20394;-74
2021/06/25 00:08:38;;;;;;;24.50;18.13;;;;;;;;;;4969085;28;20393;-75
2021/06/25 00:11:05;;;;;;;28.38;19.80;;;;;;;;;;4971242;28;20709;-74
2021/06/25 00:13:30;;;;;;;25.63;17.70;;;;;;;;;;4972747;28;20031;-74
2021/06/25 00:15:56;;;;;;;23.05;18.17;;;;;;;;;;4973778;28;20050;-74
2021/06/25 00:18:22;;;;;;;25.45;19.50;;;;;;;;;;4974007;28;20098;-74
2021/06/25 00:20:47;;;;;;;24.58;17.65;;;;;;;;;;4972166;28;20406;-74
2021/06/25 00:23:13;;;;;;;21.45;17.67;;;;;;;;;;4972612;28;20027;-75
2021/06/25 00:25:38;;;;;;;26.80;17.70;;;;;;;;;;4973907;28;20106;-74
2021/06/25 00:28:04;;;;;;;25.98;18.05;;;;;;;;;;4971993;28;20067;-78
2021/06/25 00:30:30;;;;;;;31.13;18.20;;;;;;;;;;4973460;28;20030;-79
2021/06/25 00:36:08;;;;;;;22.77;17.48;;;;;;;;;;4972813;28;20232;-77
2021/06/25 00:38:33;;;;;;;28.30;17.75;;;;;;;;;;4971799;28;20053;-77
2021/06/25 00:40:59;;;;;;;22.80;16.77;;;;;;;;;;4973081;28;20102;-79
2021/06/25 00:43:24;;;;;;;24.08;16.95;;;;;;;;;;4972651;28;20165;-77
2021/06/25 00:45:50;;;;;;;30.23;18.15;;;;;;;;;;4973199;28;20082;-77
2021/06/25 00:48:16;;;;;;;26.60;17.20;;;;;;;;;;4972867;28;20113;-77
2021/06/25 00:50:41;;;;;;;26.30;17.50;;;;;;;;;;4973258;28;20030;-77
2021/06/25 00:53:07;;;;;;;23.85;16.65;;;;;;;;;;4973205;28;20035;-78
2021/06/25 00:55:43;;;;;;;25.58;16.60;;;;;;;;;;4972632;28;20067;-78
2021/06/25 00:58:14;;;;;;;32.03;19.63;;;;;;;;;;4971524;28;20030;-78
2021/06/25 01:00:42;;;;;;;28.83;18.52;;;;;;;;;;4971894;28;20268;-78
2021/06/25 01:03:07;;;;;;;36.78;20.08;;;;;;;;;;4972983;28;20335;-78
2021/06/25 01:05:33;;;;;;;34.20;21.92;;;;;;;;;;4971891;28;20026;-79
2021/06/25 01:07:59;;;;;;;29.42;20.88;;;;;;;;;;4971966;28;20038;-78
2021/06/25 01:10:26;;;;;;;35.20;23.95;;;;;;;;;;4972529;28;20069;-78
2021/06/25 01:12:52;;;;;;;38.25;21.75;;;;;;;;;;4972967;28;20106;-78
2021/06/25 01:15:18;;;;;;;35.95;22.30;;;;;;;;;;4972680;28;20109;-78
2021/06/25 01:17:45;;;;;;;36.17;23.05;;;;;;;;;;4972775;28;20054;-78
2021/06/25 01:20:14;;;;;;;36.58;22.77;;;;;;;;;;4973079;28;20033;-78
2021/06/25 01:22:41;;;;;;;37.03;22.40;;;;;;;;;;4970523;28;20390;-78
2021/06/25 01:25:18;;;;;;;40.50;23.77;;;;;;;;;;4972723;28;20027;-77
2021/06/25 01:27:46;;;;;;;42.30;24.52;;;;;;;;;;4972986;28;20062;-78
2021/06/25 01:30:19;;;;;;;39.45;26.70;;;;;;;;;;4971454;28;20502;-77
2021/06/25 01:32:45;;;;;;;39.33;25.15;;;;;;;;;;4972833;28;20035;-78
2021/06/25 01:35:12;;;;;;;36.83;23.55;;;;;;;;;;4971153;28;20027;-78
2021/06/25 01:37:38;;;;;;;36.53;24.38;;;;;;;;;;4972577;28;20434;-76
2021/06/25 01:40:07;;;;;;;33.33;22.33;;;;;;;;;;4972451;28;20035;-79
2021/06/25 01:42:35;;;;;;;32.47;21.52;;;;;;;;;;4972073;28;20484;-78
2021/06/25 01:45:06;;;;;;;30.90;21.75;;;;;;;;;;4971916;28;20023;-79
2021/06/25 01:47:36;;;;;;;34.83;19.73;;;;;;;;;;4970485;28;20034;-78
2021/06/25 01:50:09;;;;;;;30.25;19.63;;;;;;;;;;4971752;28;20034;-78
2021/06/25 01:52:35;;;;;;;39.35;19.60;;;;;;;;;;4971518;28;20034;-79
2021/06/25 01:55:00;;;;;;;38.78;20.17;;;;;;;;;;4971765;28;20495;-79
2021/06/25 01:57:26;;;;;;;28.13;20.20;;;;;;;;;;4971490;28;20090;-79
2021/06/25 01:59:52;;;;;;;25.13;18.67;;;;;;;;;;4971799;28;20483;-78
2021/06/25 02:02:17;;;;;;;31.25;19.15;;;;;;;;;;4970151;28;20034;-79
2021/06/25 02:04:43;;;;;;;28.05;18.52;;;;;;;;;;4971399;28;20084;-78
2021/06/25 02:07:08;;;;;;;27.73;17.90;;;;;;;;;;4969997;28;20467;-78
2021/06/25 02:09:34;;;;;;;26.77;17.98;;;;;;;;;;4970959;28;20027;-78
2021/06/25 02:12:00;;;;;;;29.48;18.73;;;;;;;;;;4970403;28;20434;-75
2021/06/25 02:14:26;;;;;;;31.10;17.75;;;;;;;;;;4969567;28;20118;-76
2021/06/25 02:16:51;;;;;;;31.40;17.55;;;;;;;;;;4971500;28;20171;-75
2021/06/25 02:19:17;;;;;;;24.15;17.48;;;;;;;;;;4971168;28;20050;-75
2021/06/25 02:21:42;;;;;;;25.65;18.52;;;;;;;;;;4971159;28;20043;-75
2021/06/25 02:24:09;;;;;;;30.10;19.42;;;;;;;;;;4970941;28;20039;-75
2021/06/25 02:26:35;;;;;;;29.05;18.92;;;;;;;;;;4970035;28;20031;-75
2021/06/25 02:29:00;;;;;;;30.48;20.65;;;;;;;;;;4971884;28;20498;-75
2021/06/25 02:31:26;;;;;;;29.70;18.70;;;;;;;;;;4971481;28;20093;-75
2021/06/25 02:33:53;;;;;;;26.50;18.92;;;;;;;;;;4970810;28;20027;-75
2021/06/25 02:36:18;;;;;;;26.45;19.63;;;;;;;;;;4971396;28;20035;-75
2021/06/25 02:38:44;;;;;;;26.77;19.23;;;;;;;;;;4970369;28;20041;-74
2021/06/25 02:41:09;;;;;;;33.17;19.65;;;;;;;;;;4971101;28;20030;-74
2021/06/25 02:43:35;;;;;;;28.40;18.00;;;;;;;;;;4969521;28;20399;-75
2021/06/25 02:46:00;;;;;;;32.38;21.65;;;;;;;;;;4970904;28;20026;-74
2021/06/25 02:48:26;;;;;;;25.42;17.85;;;;;;;;;;4970590;28;20039;-74
2021/06/25 02:50:52;;;;;;;29.42;17.20;;;;;;;;;;4969313;28;20063;-75
2021/06/25 02:53:17;;;;;;;33.22;17.45;;;;;;;;;;4969708;28;20061;-77
2021/06/25 02:55:52;;;;;;;30.33;18.40;;;;;;;;;;4969665;28;20054;-75
2021/06/25 02:58:19;;;;;;;29.88;19.50;;;;;;;;;;4970084;28;20031;-75
2021/06/25 03:00:44;;;;;;;30.88;20.95;;;;;;;;;;4971626;28;20093;-74
2021/06/25 03:03:10;;;;;;;36.22;20.92;;;;;;;;;;4970831;28;20027;-76
2021/06/25 03:05:36;;;;;;;33.58;20.60;;;;;;;;;;4971208;28;20027;-76
2021/06/25 03:08:01;;;;;;;29.13;18.98;;;;;;;;;;4971499;28;20491;-75
2021/06/25 03:10:27;;;;;;;30.08;19.70;;;;;;;;;;4969394;28;20035;-75
2021/06/25 03:12:52;;;;;;;27.58;18.55;;;;;;;;;;4971735;28;20042;-75
2021/06/25 03:15:18;;;;;;;34.25;19.25;;;;;;;;;;4971650;28;20427;-76
2021/06/25 03:17:43;;;;;;;31.48;19.98;;;;;;;;;;4971354;28;20038;-75
2021/06/25 03:20:09;;;;;;;34.00;20.67;;;;;;;;;;4970403;28;20028;-75
2021/06/25 03:22:36;;;;;;;31.98;19.13;;;;;;;;;;4970956;28;20363;-74
2021/06/25 03:25:02;;;;;;;32.70;20.77;;;;;;;;;;4969828;28;20113;-75
2021/06/25 03:27:28;;;;;;;32.53;19.45;;;;;;;;;;4971354;28;20033;-75
2021/06/25 03:29:53;;;;;;;33.85;20.35;;;;;;;;;;4971380;28;20467;-76
2021/06/25 03:32:19;;;;;;;28.10;17.15;;;;;;;;;;4970537;28;20530;-74
2021/06/25 03:34:44;;;;;;;24.10;17.45;;;;;;;;;;4969562;28;20117;-75
2021/06/25 03:37:10;;;;;;;28.15;18.35;;;;;;;;;;4970637;28;20109;-75
2021/06/25 03:39:35;;;;;;;29.88;18.52;;;;;;;;;;4970714;28;20034;-75
2021/06/25 03:42:01;;;;;;;28.40;17.60;;;;;;;;;;4969602;28;20026;-75
2021/06/25 03:44:26;;;;;;;27.83;17.70;;;;;;;;;;4969374;28;20117;-75
2021/06/25 03:46:52;;;;;;;24.40;16.48;;;;;;;;;;4972653;28;20041;-75
2021/06/25 03:49:17;;;;;;;24.13;17.20;;;;;;;;;;4973155;28;20110;-74
2021/06/25 03:51:43;;;;;;;28.50;17.45;;;;;;;;;;4972844;28;20062;-75
2021/06/25 03:54:08;;;;;;;24.33;16.60;;;;;;;;;;4972798;28;20137;-75
2021/06/25 03:56:34;;;;;;;29.58;18.05;;;;;;;;;;4972863;28;20045;-73
2021/06/25 03:58:59;;;;;;;28.48;18.38;;;;;;;;;;4973218;28;20069;-75
2021/06/25 04:01:25;;;;;;;28.58;17.38;;;;;;;;;;4973103;28;20471;-75
2021/06/25 04:03:50;;;;;;;25.27;16.98;;;;;;;;;;4975057;28;20030;-76
2021/06/25 04:06:17;;;;;;;28.95;16.98;;;;;;;;;;4974641;28;20037;-76
2021/06/25 04:08:42;;;;;;;29.42;21.15;;;;;;;;;;4974468;28;20110;-75
2021/06/25 04:11:08;;;;;;;29.13;20.83;;;;;;;;;;4974412;28;20041;-76
2021/06/25 04:13:35;;;;;;;23.50;17.25;;;;;;;;;;4974697;28;20378;-75
2021/06/25 04:16:01;;;;;;;29.27;19.10;;;;;;;;;;4974278;28;20105;-75
2021/06/25 04:18:28;;;;;;;32.42;18.33;;;;;;;;;;4956733;28;20045;-75
2021/06/25 04:20:55;;;;;;;28.08;18.92;;;;;;;;;;4973056;28;20465;-75
2021/06/25 04:23:21;;;;;;;27.13;19.20;;;;;;;;;;4974291;28;20030;-75
2021/06/25 04:25:47;;;;;;;25.98;17.40;;;;;;;;;;4974683;28;20106;-75
2021/06/25 04:28:14;;;;;;;29.17;18.75;;;;;;;;;;4975485;28;20026;-77
2021/06/25 04:30:41;;;;;;;31.20;20.80;;;;;;;;;;4972510;28;20027;-75
2021/06/25 04:33:09;;;;;;;26.17;18.42;;;;;;;;;;4973349;28;20023;-75
2021/06/25 04:35:37;;;;;;;27.48;18.05;;;;;;;;;;4972279;28;20034;-75
2021/06/25 04:38:03;;;;;;;30.38;20.25;;;;;;;;;;4972961;28;20054;-76
2021/06/25 04:40:33;;;;;;;25.98;18.10;;;;;;;;;;4973874;28;20029;-74
2021/06/25 04:42:58;;;;;;;23.55;17.92;;;;;;;;;;4972292;28;20472;-75
2021/06/25 04:45:25;;;;;;;26.13;18.58;;;;;;;;;;4972520;28;20027;-76
2021/06/25 04:47:51;;;;;;;28.33;17.90;;;;;;;;;;4972897;28;20030;-76
2021/06/25 04:50:17;;;;;;;33.63;19.58;;;;;;;;;;4974094;28;20494;-74
2021/06/25 04:52:42;;;;;;;31.10;18.55;;;;;;;;;;4972776;28;20031;-76
2021/06/25 04:55:08;;;;;;;28.23;19.20;;;;;;;;;;4973367;28;20058;-75
2021/06/25 04:57:36;;;;;;;29.88;20.45;;;;;;;;;;4971940;28;20034;-75
2021/06/25 05:00:01;;;;;;;31.08;20.92;;;;;;;;;;4973537;28;20063;-75
2021/06/25 05:02:27;;;;;;;36.75;21.70;;;;;;;;;;4971876;28;20394;-76
2021/06/25 05:04:52;;;;;;;35.85;23.88;;;;;;;;;;4972329;28;20045;-75
2021/06/25 05:07:18;;;;;;;39.55;25.92;;;;;;;;;;4973967;28;20370;-76
2021/06/25 05:09:43;;;;;;;44.63;24.25;;;;;;;;;;4970989;28;20037;-77
2021/06/25 05:12:09;;;;;;;48.88;27.50;;;;;;;;;;4972727;28;20026;-77
2021/06/25 05:14:34;;;;;;;49.53;28.08;;;;;;;;;;4971368;28;20031;-77
2021/06/25 05:17:00;;;;;;;45.03;27.58;;;;;;;;;;4973312;28;20062;-76
2021/06/25 05:19:25;;;;;;;38.97;23.63;;;;;;;;;;4972063;28;20551;-76
2021/06/25 05:21:51;;;;;;;38.90;24.67;;;;;;;;;;4971248;28;20125;-74
2021/06/25 05:24:16;;;;;;;49.40;26.48;;;;;;;;;;4972374;28;20042;-74
2021/06/25 05:26:42;;;;;;;43.47;26.42;;;;;;;;;;4970595;28;20030;-74
2021/06/25 05:29:11;;;;;;;46.00;26.02;;;;;;;;;;4970844;28;20100;-77
2021/06/25 05:31:36;;;;;;;41.63;25.08;;;;;;;;;;4970662;28;20495;-76
2021/06/25 05:34:03;;;;;;;41.17;27.52;;;;;;;;;;4959138;28;20038;-76
2021/06/25 05:36:28;;;;;;;45.25;25.17;;;;;;;;;;4971984;28;20098;-76
2021/06/25 05:38:54;;;;;;;48.85;25.48;;;;;;;;;;4978053;28;20561;-77
2021/06/25 05:41:19;;;;;;;39.28;25.15;;;;;;;;;;4990816;28;20044;-77
2021/06/25 05:43:45;;;;;;;44.78;25.45;;;;;;;;;;4990174;28;20388;-76
2021/06/25 05:46:11;;;;;;;43.03;26.08;;;;;;;;;;4970941;28;20490;-77
2021/06/25 05:48:38;;;;;;;41.22;23.98;;;;;;;;;;4969200;28;20129;-78
2021/06/25 05:51:05;;;;;;;40.58;24.27;;;;;;;;;;4969848;28;20467;-77
2021/06/25 05:53:31;;;;;;;41.63;23.30;;;;;;;;;;4969525;28;20046;-77
2021/06/25 05:55:56;;;;;;;32.67;21.30;;;;;;;;;;4985839;28;20451;-78
2021/06/25 05:58:22;;;;;;;26.33;18.83;;;;;;;;;;4970977;28;20042;-76
2021/06/25 06:00:48;;;;;;;27.60;16.95;;;;;;;;;;4971012;28;20031;-77
2021/06/25 06:03:14;;;;;;;18.60;11.57;;;;;;;;;;4971433;28;20031;-76
2021/06/25 06:05:39;;;;;;;13.05;7.35;;;;;;;;;;4970411;28;20114;-75
2021/06/25 06:08:05;;;;;;;10.90;6.50;;;;;;;;;;4969880;28;20073;-75
2021/06/25 06:10:31;;;;;;;9.80;7.30;;;;;;;;;;4970368;28;20033;-75
2021/06/25 06:12:58;;;;;;;10.48;5.95;;;;;;;;;;4971059;28;20295;-74
2021/06/25 06:15:23;;;;;;;8.63;5.32;;;;;;;;;;4970520;28;20034;-73
2021/06/25 06:17:50;;;;;;;10.35;6.18;;;;;;;;;;4970555;28;20464;-74
2021/06/25 06:20:27;;;;;;;8.20;5.15;;;;;;;;;;4970656;28;20033;-74
2021/06/25 06:31:22;;;;;;;7.00;4.97;;;;;;;;;;4969587;28;20113;-74
2021/06/25 06:33:58;;;;;;;13.43;5.15;;;;;;;;;;4984386;28;20038;-75
2021/06/25 06:36:28;;;;;;;17.13;7.00;;;;;;;;;;4974610;28;20042;-75
2021/06/25 06:38:54;;;;;;;7.53;3.95;;;;;;;;;;4966779;28;20029;-75
2021/06/25 06:41:20;;;;;;;10.85;5.13;;;;;;;;;;4976360;28;20158;-75
2021/06/25 06:43:47;;;;;;;4.53;3.35;;;;;;;;;;4965928;28;20045;-75
2021/06/25 06:46:13;;;;;;;10.18;3.47;;;;;;;;;;4965036;28;20379;-75
2021/06/25 06:48:42;;;;;;;4.18;3.78;;;;;;;;;;4964555;28;20079;-74
2021/06/25 06:51:08;;;;;;;6.47;3.25;;;;;;;;;;4964341;28;20239;-75
2021/06/25 06:53:35;;;;;;;7.47;3.47;;;;;;;;;;4961708;28;20502;-75
2021/06/25 06:56:03;;;;;;;5.15;3.05;;;;;;;;;;4979301;28;20055;-74
2021/06/25 06:58:29;;;;;;;4.88;2.95;;;;;;;;;;4965249;28;20026;-74
2021/06/25 07:00:55;;;;;;;6.10;2.83;;;;;;;;;;4961741;28;20415;-75
2021/06/25 07:03:21;;;;;;;9.52;4.53;;;;;;;;;;4992017;28;20053;-74
2021/06/25 07:05:46;;;;;;;5.70;3.88;;;;;;;;;;4963087;28;20035;-74
2021/06/25 07:08:13;;;;;;;5.63;3.60;;;;;;;;;;4963407;28;20046;-75
2021/06/25 07:10:39;;;;;;;4.22;3.17;;;;;;;;;;4963449;28;20926;-75
2021/06/25 07:13:04;;;;;;;5.57;3.47;;;;;;;;;;4959900;28;20517;-77
2021/06/25 07:15:30;;;;;;;4.50;3.95;;;;;;;;;;4976644;28;20030;-75
2021/06/25 07:17:55;;;;;;;6.22;3.42;;;;;;;;;;4964185;28;20039;-75
2021/06/25 07:20:21;;;;;;;6.25;3.88;;;;;;;;;;4962350;28;20043;-75
2021/06/25 07:22:46;;;;;;;8.02;4.20;;;;;;;;;;4960216;28;20118;-74
2021/06/25 07:25:12;;;;;;;7.57;4.28;;;;;;;;;;4964137;28;20121;-75
2021/06/25 07:27:40;;;;;;;9.52;4.30;;;;;;;;;;4965320;28;20022;-74
2021/06/25 07:30:06;;;;;;;11.32;5.22;;;;;;;;;;4962950;28;20035;-75
2021/06/25 07:32:32;;;;;;;8.52;4.43;;;;;;;;;;4976442;28;20019;-71
2021/06/25 07:34:57;;;;;;;10.52;5.28;;;;;;;;;;4993099;28;20041;-75
2021/06/25 07:37:23;;;;;;;8.57;5.28;;;;;;;;;;4963405;28;20058;-74
2021/06/25 07:39:49;;;;;;;6.50;4.55;;;;;;;;;;4963996;28;20509;-75
2021/06/25 07:42:14;;;;;;;5.38;4.60;;;;;;;;;;4961191;28;20134;-75
2021/06/25 07:44:40;;;;;;;6.88;4.80;;;;;;;;;;4977436;28;20027;-75
2021/06/25 07:47:05;;;;;;;8.85;4.13;;;;;;;;;;4962920;28;20027;-75
2021/06/25 07:49:31;;;;;;;6.57;4.57;;;;;;;;;;4962088;28;20034;-74
2021/06/25 07:51:57;;;;;;;6.05;4.57;;;;;;;;;;4959149;28;20529;-74
2021/06/25 07:54:24;;;;;;;7.53;5.00;;;;;;;;;;4963156;28;20194;-75
2021/06/25 07:56:49;;;;;;;8.10;4.53;;;;;;;;;;4961186;28;20499;-76
2021/06/25 07:59:15;;;;;;;11.13;5.18;;;;;;;;;;4960451;28;20041;-75
2021/06/25 08:01:40;;;;;;;7.07;5.38;;;;;;;;;;4961440;28;20936;-75
2021/06/25 08:04:06;;;;;;;7.85;4.97;;;;;;;;;;4961583;28;20390;-76
2021/06/25 08:06:32;;;;;;;8.05;5.70;;;;;;;;;;4960535;28;20030;-74
2021/06/25 08:08:57;;;;;;;8.70;5.32;;;;;;;;;;4962483;28;20034;-75
2021/06/25 08:11:23;;;;;;;9.02;6.03;;;;;;;;;;4961723;28;20109;-75
2021/06/25 08:13:48;;;;;;;9.90;5.68;;;;;;;;;;4991356;28;20082;-73
2021/06/25 08:16:14;;;;;;;10.82;6.00;;;;;;;;;;4961727;28;20038;-74
2021/06/25 08:18:40;;;;;;;9.18;5.82;;;;;;;;;;4960808;28;20069;-76
2021/06/25 08:21:06;;;;;;;10.57;6.05;;;;;;;;;;4976351;28;20035;-73
2021/06/25 08:23:32;;;;;;;9.02;5.88;;;;;;;;;;4961123;28;20065;-75
2021/06/25 08:25:57;;;;;;;8.30;5.97;;;;;;;;;;4993581;28;20015;-76
2021/06/25 08:28:23;;;;;;;9.35;6.47;;;;;;;;;;4960843;28;20042;-76
2021/06/25 08:30:48;;;;;;;11.57;7.70;;;;;;;;;;4961070;28;20043;-75
2021/06/25 08:33:14;;;;;;;8.82;6.15;;;;;;;;;;4975131;28;20530;-74
2021/06/25 08:35:40;;;;;;;9.52;7.10;;;;;;;;;;4963341;28;20466;-75
2021/06/25 08:38:05;;;;;;;11.95;7.53;;;;;;;;;;4962929;28;20050;-76
2021/06/25 08:40:31;;;;;;;7.25;6.18;;;;;;;;;;4965307;28;20031;-75
2021/06/25 08:43:00;;;;;;;26.30;16.80;;;;;;;;;;4964816;28;20459;-76
2021/06/25 08:45:28;;;;;;;10.20;7.55;;;;;;;;;;4963685;28;20062;-75
2021/06/25 08:47:54;;;;;;;11.48;6.82;;;;;;;;;;4965685;28;20046;-75
2021/06/25 08:50:21;;;;;;;9.95;7.63;;;;;;;;;;4965279;28;20467;-75
2021/06/25 08:52:49;;;;;;;10.07;7.80;;;;;;;;;;4964893;28;20437;-75
2021/06/25 08:55:15;;;;;;;11.60;7.35;;;;;;;;;;4964001;28;20161;-75
2021/06/25 08:57:43;;;;;;;10.50;7.93;;;;;;;;;;4964105;28;20050;-75
2021/06/25 09:00:14;;;;;;;11.57;7.65;;;;;;;;;;4968744;28;20069;-76
2021/06/25 09:02:40;;;;;;;;;;;;;;;;;;4965266;28;20045;-76
2021/06/25 09:05:28;;;;;;;11.30;8.13;;;;;;;;;;4963725;28;20274;-75
2021/06/25 09:07:56;;;;;;;12.77;8.38;;;;;;;;;;4978275;28;20034;-75
2021/06/25 09:10:32;;;;;;;11.05;9.02;;;;;;;;;;4961615;28;20038;-76
2021/06/25 09:13:07;;;;;;;11.15;8.20;;;;;;;;;;4960088;28;20352;-76
2021/06/25 09:15:33;;;;;;;12.68;8.35;;;;;;;;;;4964458;28;20038;-76
2021/06/25 09:18:10;;;;;;;10.20;8.68;;;;;;;;;;4963167;28;20038;-74
2021/06/25 09:20:36;;;;;;;12.93;8.57;;;;;;;;;;4962254;28;20035;-76
2021/06/25 09:23:04;;;;;;;11.43;8.82;;;;;;;;;;4962635;28;20030;-76
2021/06/25 09:25:30;;;;;;;10.60;8.57;;;;;;;;;;4994582;28;20043;-75
2021/06/25 09:27:59;;;;;;;11.30;8.55;;;;;;;;;;4979682;28;20053;-75
2021/06/25 09:30:27;;;;;;;14.77;8.85;;;;;;;;;;4998906;28;20038;-75
2021/06/25 09:32:53;;;;;;;10.38;8.25;;;;;;;;;;4964597;28;20047;-74
2021/06/25 09:35:22;;;;;;;13.02;8.77;;;;;;;;;;4965366;28;20043;-74
2021/06/25 09:37:53;;;;;;;13.52;9.40;;;;;;;;;;4994683;28;20046;-74
2021/06/25 09:40:19;;;;;;;;;;;;;;;;;;4995545;28;20097;-75
2021/06/25 09:43:06;;;;;;;16.75;12.05;;;;;;;;;;4963255;28;19924;-75
2021/06/25 09:45:33;;;;;;;9.82;8.23;;;;;;;;;;4964457;28;20027;-75
2021/06/25 09:47:58;;;;;;;11.60;8.52;;;;;;;;;;4961706;28;20030;-75
2021/06/25 09:50:33;;;;;;;14.80;9.15;;;;;;;;;;4978782;28;20409;-74
2021/06/25 09:53:06;;;;;;;16.38;9.20;;;;;;;;;;4977860;28;20089;-74
2021/06/25 09:55:53;;;;;;;19.83;10.55;;;;;;;;;;4971902;28;20066;-75
2021/06/25 09:58:35;;;;;;;13.80;9.98;;;;;;;;;;4968925;28;20035;-74
2021/06/25 10:01:21;;;;;;;15.18;10.73;;;;;;;;;;4970330;28;20483;-75
2021/06/25 10:03:52;;;;;;;12.45;9.15;;;;;;;;;;4969445;28;20023;-74
2021/06/25 10:06:26;;;;;;;12.23;8.98;;;;;;;;;;4969874;28;20475;-75
2021/06/25 10:08:53;;;;;;;11.75;9.00;;;;;;;;;;5001039;28;20035;-74
2021/06/25 10:11:25;;;;;;;10.98;7.55;;;;;;;;;;4969603;28;20035;-75
2021/06/25 10:13:53;;;;;;;10.95;7.13;;;;;;;;;;4969831;28;20030;-76
2021/06/25 10:16:19;;;;;;;10.82;6.97;;;;;;;;;;5000486;28;20275;-76
2021/06/25 10:18:49;;;;;;;8.32;5.60;;;;;;;;;;4969563;28;20045;-76
2021/06/25 10:21:17;;;;;;;5.63;4.75;;;;;;;;;;4970231;28;20027;-74
2021/06/25 10:23:51;;;;;;;8.77;5.35;;;;;;;;;;4954269;28;20018;-74
2021/06/25 10:26:19;;;;;;;8.88;4.32;;;;;;;;;;4968480;28;20031;-74
2021/06/25 10:28:46;;;;;;;7.53;4.53;;;;;;;;;;4988241;28;20031;-75
2021/06/25 10:31:14;;;;;;;7.20;5.45;;;;;;;;;;5000955;28;20031;-76
2021/06/25 10:33:41;;;;;;;9.60;4.90;;;;;;;;;;4984730;28;20027;-75
2021/06/25 10:36:08;;;;;;;8.50;4.15;;;;;;;;;;4969398;28;20022;-73
2021/06/25 10:38:35;;;;;;;4.60;3.90;;;;;;;;;;4968580;28;20027;-75
2021/06/25 10:41:06;;;;;;;4.40;4.00;;;;;;;;;;4969368;28;20062;-76
2021/06/25 10:43:52;;;;;;;34.03;19.27;;;;;;;;;;4984138;28;20109;-75
2021/06/25 10:46:38;;;;;;;4.78;3.78;;;;;;;;;;4969571;28;20105;-75
2021/06/25 10:49:16;;;;;;;4.70;3.78;;;;;;;;;;4969374;28;20057;-74
2021/06/25 10:51:45;;;;;;;5.10;3.92;;;;;;;;;;4966268;28;20019;-74
2021/06/25 10:54:16;;;;;;;7.15;3.58;;;;;;;;;;4957013;28;20506;-74
2021/06/25 10:56:50;;;;;;;5.07;3.83;;;;;;;;;;4957346;28;20060;-75
2021/06/25 10:59:27;;;;;;;3.90;3.50;;;;;;;;;;4965245;28;20510;-75
2021/06/25 11:02:01;;;;;;;6.03;3.75;;;;;;;;;;4953023;28;20034;-75
2021/06/25 11:04:43;;;;;;;12.95;7.47;;;;;;;;;;4959899;28;20035;-74
2021/06/25 11:07:38;;;;;;;5.75;3.58;;;;;;;;;;4964844;28;20098;-75
2021/06/25 11:10:06;;;;;;;4.40;3.97;;;;;;;;;;4954728;28;20019;-75
2021/06/25 11:12:37;;;;;;;9.60;3.90;;;;;;;;;;4983280;28;20146;-76
2021/06/25 11:15:09;;;;;;;5.82;3.55;;;;;;;;;;4968701;28;20054;-75
2021/06/25 11:17:47;;;;;;;6.10;3.58;;;;;;;;;;4983225;28;20037;-75
2021/06/25 11:20:19;;;;;;;6.72;3.47;;;;;;;;;;4983349;28;20031;-75
2021/06/25 11:23:08;;;;;;;5.60;4.15;;;;;;;;;;4983177;28;20483;-74
2021/06/25 11:25:52;;;;;;;6.13;3.92;;;;;;;;;;4963475;28;20038;-76
2021/06/25 11:30:54;;;;;;;4.55;3.78;;;;;;;;;;4967927;28;20039;-77
2021/06/25 11:33:36;;;;;;;6.97;4.22;;;;;;;;;;4968734;28;20034;-75
2021/06/25 11:36:19;;;;;;;49.47;7.97;;;;;;;;;;4968026;28;20432;-75
2021/06/25 11:38:54;;;;;;;55.60;8.60;;;;;;;;;;4968805;28;20042;-76
2021/06/25 11:41:26;;;;;;;38.75;6.70;;;;;;;;;;4967776;28;20057;-75
2021/06/25 11:43:52;;;;;;;6.18;3.85;;;;;;;;;;4967192;28;20027;-76
2021/06/25 11:46:19;;;;;;;9.48;4.95;;;;;;;;;;4983443;28;20093;-74
2021/06/25 11:48:45;;;;;;;9.38;4.32;;;;;;;;;;4968467;28;20467;-78
2021/06/25 11:51:13;;;;;;;5.40;3.75;;;;;;;;;;4984163;28;20039;-75
2021/06/25 11:53:42;;;;;;;7.03;3.92;;;;;;;;;;4982806;28;20042;-76
2021/06/25 11:56:22;;;;;;;35.42;7.53;;;;;;;;;;4968123;28;20109;-75
2021/06/25 11:59:17;;;;;;;17.10;5.55;;;;;;;;;;4983461;28;20041;-74
2021/06/25 12:02:00;;;;;;;7.22;4.38;;;;;;;;;;4962784;28;20039;-75
2021/06/25 12:04:35;;;;;;;21.90;5.60;;;;;;;;;;4982775;28;20042;-76
2021/06/25 12:07:01;;;;;;;7.65;4.22;;;;;;;;;;4970339;28;20061;-75
2021/06/25 12:09:50;;;;;;;22.08;5.95;;;;;;;;;;4973066;28;20724;-76
2021/06/25 12:12:20;;;;;;;25.92;8.30;;;;;;;;;;4972824;28;20319;-75
2021/06/25 12:15:00;;;;;;;14.98;5.78;;;;;;;;;;4986252;28;20149;-75
2021/06/25 12:17:45;;;;;;;7.13;4.30;;;;;;;;;;4970157;28;20077;-75
2021/06/25 12:20:25;;;;;;;5.97;5.03;;;;;;;;;;4986721;28;20027;-75
2021/06/25 12:22:52;;;;;;;23.75;7.25;;;;;;;;;;4971941;28;20424;-74
2021/06/25 12:25:30;;;;;;;15.63;6.10;;;;;;;;;;4971810;28;20054;-75
2021/06/25 12:27:56;;;;;;;8.70;4.68;;;;;;;;;;4986786;28;20457;-75
2021/06/25 12:30:24;;;;;;;10.20;4.80;;;;;;;;;;4972127;28;20046;-75
2021/06/25 12:33:01;;;;;;;11.15;5.30;;;;;;;;;;4972659;28;20341;-73
2021/06/25 12:35:35;;;;;;;7.43;4.22;;;;;;;;;;4970599;28;20120;-75
2021/06/25 12:38:07;;;;;;;6.47;4.55;;;;;;;;;;4953731;28;20035;-75
2021/06/25 12:40:39;;;;;;;;;;;;;;;;;;4986872;28;20423;-77
2021/06/25 12:43:05;;;;;;;6.88;4.45;;;;;;;;;;4986965;28;19914;-74
2021/06/25 12:45:38;;;;;;;4.18;3.65;;;;;;;;;;4971996;28;20038;-75
2021/06/25 12:48:11;;;;;;;10.25;5.05;;;;;;;;;;4972233;28;20062;-74
2021/06/25 12:50:41;;;;;;;6.82;4.65;;;;;;;;;;4969651;28;20046;-75
2021/06/25 12:53:29;;;;;;;8.35;4.30;;;;;;;;;;4986484;28;20034;-73
2021/06/25 12:55:58;;;;;;;5.97;4.38;;;;;;;;;;4971330;28;20383;-74
2021/06/25 12:58:25;;;;;;;9.35;4.18;;;;;;;;;;4971298;28;20479;-75
2021/06/25 13:00:58;;;;;;;10.45;4.28;;;;;;;;;;4968805;28;20045;-75
2021/06/25 13:03:27;;;;;;;14.88;11.70;;;;;;;;;;4970299;28;20042;-75
2021/06/25 13:05:54;;;;;;;5.97;4.47;;;;;;;;;;4971275;28;20102;-74
2021/06/25 13:08:26;;;;;;;7.53;4.93;;;;;;;;;;4972571;28;20026;-75
2021/06/25 13:10:57;;;;;;;8.38;4.10;;;;;;;;;;4954759;28;20475;-75
2021/06/25 13:13:26;;;;;;;13.52;11.18;;;;;;;;;;4971208;28;20390;-75
2021/06/25 13:16:00;;;;;;;10.13;4.90;;;;;;;;;;4971047;28;20042;-74
2021/06/25 13:18:36;;;;;;;6.82;6.13;;;;;;;;;;4984297;28;20058;-74
2021/06/25 13:21:36;;;;;;;8.48;6.43;;;;;;;;;;4970149;28;20105;-73
2021/06/25 13:24:16;;;;;;;9.85;6.28;;;;;;;;;;4970244;28;20019;-75
2021/06/25 13:26:59;;;;;;;11.98;6.60;;;;;;;;;;4969348;28;20027;-74
2021/06/25 13:29:47;;;;;;;8.27;6.85;;;;;;;;;;4970581;28;20490;-74
2021/06/25 13:32:15;;;;;;;11.85;7.18;;;;;;;;;;4970003;28;20026;-75
2021/06/25 13:34:54;;;;;;;9.50;7.00;;;;;;;;;;4971073;28;20097;-74
2021/06/25 13:37:24;;;;;;;8.70;6.22;;;;;;;;;;4970738;28;20053;-74
2021/06/25 13:39:55;;;;;;;8.15;6.57;;;;;;;;;;4969494;28;20251;-73
2021/06/25 13:42:21;;;;;;;13.45;9.43;;;;;;;;;;4970842;28;20375;-73
2021/06/25 13:44:47;;;;;;;9.23;7.90;;;;;;;;;;4971185;28;20027;-75
2021/06/25 13:47:14;;;;;;;12.55;8.68;;;;;;;;;;4970009;28;20114;-75
2021/06/25 13:49:55;;;;;;;26.55;13.35;;;;;;;;;;4970923;28;20093;-75
2021/06/25 13:52:31;;;;;;;24.95;11.23;;;;;;;;;;4971588;28;20030;-76
2021/06/25 13:55:16;;;;;;;14.75;9.88;;;;;;;;;;4970974;28;20047;-74
2021/06/25 13:58:07;;;;;;;15.85;12.15;;;;;;;;;;4969854;28;20035;-76
2021/06/25 14:00:39;;;;;;;14.88;9.10;;;;;;;;;;4986233;28;20023;-76
2021/06/25 14:03:11;;;;;;;10.05;6.88;;;;;;;;;;4968866;28;20034;-74
2021/06/25 14:05:37;;;;;;;15.88;8.70;;;;;;;;;;4970847;28;20031;-75
2021/06/25 14:08:08;;;;;;;10.23;6.38;;;;;;;;;;4970081;28;20019;-76
2021/06/25 14:10:36;;;;;;;13.30;7.20;;;;;;;;;;4971247;28;20023;-75
2021/06/25 14:13:02;;;;;;;9.70;7.63;;;;;;;;;;4970670;28;20490;-74
2021/06/25 14:15:44;;;;;;;17.50;8.38;;;;;;;;;;4969393;28;20030;-74
2021/06/25 14:18:15;;;;;;;9.40;6.35;;;;;;;;;;4971213;28;20063;-76
2021/06/25 14:20:41;;;;;;;9.45;6.05;;;;;;;;;;4951544;28;20035;-74
2021/06/25 14:23:06;;;;;;;8.20;6.47;;;;;;;;;;4969501;28;20054;-75
2021/06/25 14:25:32;;;;;;;8.15;5.40;;;;;;;;;;4970810;28;20027;-75
2021/06/25 14:27:58;;;;;;;19.20;9.80;;;;;;;;;;4968739;28;20437;-75
2021/06/25 14:30:27;;;;;;;4.95;3.63;;;;;;;;;;4969089;28;20372;-74
2021/06/25 14:32:54;;;;;;;5.68;3.45;;;;;;;;;;4970463;28;20026;-74
2021/06/25 14:35:19;;;;;;;5.43;4.47;;;;;;;;;;4970374;28;20053;-75
2021/06/25 14:37:46;;;;;;;8.57;5.20;;;;;;;;;;4970219;28;20031;-75
2021/06/25 14:40:12;;;;;;;14.00;8.27;;;;;;;;;;4970148;28;20407;-75
2021/06/25 14:42:38;;;;;;;9.75;7.65;;;;;;;;;;4974248;28;20053;-74
2021/06/25 14:45:06;;;;;;;6.28;4.25;;;;;;;;;;4969261;28;20452;-75
2021/06/25 14:47:32;;;;;;;5.57;4.43;;;;;;;;;;4969223;28;20027;-73
2021/06/25 14:49:58;;;;;;;11.57;6.55;;;;;;;;;;4985291;28;20506;-74
2021/06/25 14:52:23;;;;;;;9.00;5.68;;;;;;;;;;4969845;28;20047;-74